createdAt,value
2023-05-07T00:01:03.524Z,80.89
2023-05-07T00:03:33.418Z,80.72
2023-05-07T00:05:59.999Z,80.43
2023-05-07T00:08:26.438Z,80.90
2023-05-07T00:10:56.849Z,78.96
2023-05-07T00:13:23.381Z,81.19
2023-05-07T00:15:49.942Z,80.31
2023-05-07T00:18:16.881Z,78.44
2023-05-07T00:20:43.235Z,80.13
2023-05-07T00:23:10.163Z,78.55
2023-05-07T00:25:36.625Z,79.66
2023-05-07T00:28:04.740Z,79.07
2023-05-07T00:30:31.315Z,80.09
2023-05-07T00:32:57.783Z,80.13
2023-05-07T00:35:24.362Z,79.81
2023-05-07T00:37:50.867Z,80.16
2023-05-07T00:40:17.269Z,81.24
2023-05-07T00:42:47.850Z,79.87
2023-05-07T00:45:17.809Z,81.26
2023-05-07T00:47:44.886Z,80.43
2023-05-07T00:50:14.214Z,81.83
2023-05-07T00:52:42.776Z,80.32
2023-05-07T00:55:09.432Z,79.47
2023-05-07T00:57:38.451Z,80.06
2023-05-07T01:00:07.064Z,81.78
2023-05-07T01:02:33.461Z,80.40
2023-05-07T01:05:04.251Z,79.81
2023-05-07T01:07:33.474Z,80.23
2023-05-07T01:09:59.913Z,81.45
2023-05-07T01:12:26.676Z,81.37
2023-05-07T01:14:53.300Z,81.59
2023-05-07T01:17:22.246Z,82.96
2023-05-07T01:19:51.107Z,82.12
2023-05-07T01:22:23.004Z,82.46
2023-05-07T01:24:49.632Z,81.10
2023-05-07T01:27:18.449Z,82.77
2023-05-07T01:29:44.932Z,81.51
2023-05-07T01:32:12.619Z,82.79
2023-05-07T01:34:40.715Z,82.01
2023-05-07T01:37:08.693Z,83.02
2023-05-07T01:39:40.874Z,83.94
2023-05-07T01:42:07.875Z,84.40
2023-05-07T01:44:34.622Z,83.72
2023-05-07T01:47:02.593Z,84.14
2023-05-07T01:49:29.215Z,83.10
2023-05-07T01:51:56.960Z,83.52
2023-05-07T01:54:29.624Z,84.16
2023-05-07T01:57:00.420Z,84.15
2023-05-07T01:59:27.020Z,84.49
2023-05-07T02:01:56.553Z,84.69
2023-05-07T02:04:26.122Z,83.69
2023-05-07T02:06:53.667Z,84.42
2023-05-07T02:09:20.248Z,85.02
2023-05-07T02:11:49.496Z,83.14
2023-05-07T02:14:16.394Z,83.08
2023-05-07T02:16:42.944Z,83.10
2023-05-07T02:19:09.386Z,85.10
2023-05-07T02:21:35.838Z,84.79
2023-05-07T02:24:04.782Z,83.71
2023-05-07T02:26:31.165Z,84.83
2023-05-07T02:28:57.618Z,84.99
2023-05-07T02:31:24.112Z,85.47
2023-05-07T02:33:50.753Z,86.42
2023-05-07T02:36:17.360Z,86.24
2023-05-07T02:38:45.993Z,86.93
2023-05-07T02:41:12.487Z,87.19
2023-05-07T02:43:38.949Z,86.66
2023-05-07T02:46:07.104Z,86.70
2023-05-07T02:48:34.341Z,86.67
2023-05-07T02:51:01.258Z,87.17
2023-05-07T02:53:30.476Z,86.82
2023-05-07T02:55:58.587Z,84.68
2023-05-07T02:58:25.260Z,86.02
2023-05-07T03:00:51.789Z,86.81
2023-05-07T03:03:18.633Z,86.77
2023-05-07T03:05:47.656Z,87.33
2023-05-07T03:08:16.388Z,87.35
2023-05-07T03:10:45.540Z,87.30
2023-05-07T03:13:12.132Z,87.15
2023-05-07T03:15:38.795Z,86.45
2023-05-07T03:18:05.368Z,84.66
2023-05-07T03:20:32.053Z,86.58
2023-05-07T03:23:01.030Z,86.21
2023-05-07T03:25:27.610Z,87.04
2023-05-07T03:27:54.194Z,85.01
2023-05-07T03:30:21.090Z,86.47
2023-05-07T03:32:47.528Z,88.08
2023-05-07T03:35:13.935Z,85.74
2023-05-07T03:37:40.802Z,85.72
2023-05-07T03:40:09.103Z,87.40
2023-05-07T03:42:38.116Z,87.15
2023-05-07T03:45:04.829Z,86.73
2023-05-07T03:47:31.346Z,87.21
2023-05-07T03:49:57.830Z,86.93
2023-05-07T03:52:27.098Z,85.37
2023-05-07T03:54:54.534Z,86.24
2023-05-07T03:57:21.406Z,86.56
2023-05-07T03:59:47.800Z,85.89
2023-05-07T04:02:14.450Z,85.72
2023-05-07T04:04:40.972Z,87.29
2023-05-07T04:07:08.413Z,85.95
2023-05-07T04:09:34.959Z,86.76
2023-05-07T04:12:02.306Z,87.25
2023-05-07T04:14:28.781Z,87.07
2023-05-07T04:16:55.615Z,86.57
2023-05-07T04:19:22.367Z,85.89
2023-05-07T04:21:48.850Z,87.58
2023-05-07T04:24:15.258Z,85.69
2023-05-07T04:26:41.651Z,87.58
2023-05-07T04:29:08.642Z,85.72
2023-05-07T04:31:37.447Z,86.33
2023-05-07T04:34:03.784Z,87.30
2023-05-07T04:36:30.640Z,86.87
2023-05-07T04:38:57.122Z,86.56
2023-05-07T04:41:23.588Z,86.73
2023-05-07T04:43:49.983Z,87.79
2023-05-07T04:46:16.460Z,87.00
2023-05-07T04:48:45.455Z,86.71
2023-05-07T04:51:12.000Z,87.43
2023-05-07T04:53:38.812Z,86.87
2023-05-07T04:56:05.370Z,86.88
2023-05-07T04:58:32.684Z,87.17
2023-05-07T05:01:00.205Z,87.16
2023-05-07T05:03:26.977Z,86.45
2023-05-07T05:05:53.979Z,86.58
2023-05-07T05:08:20.522Z,86.36
2023-05-07T05:10:47.248Z,86.36
2023-05-07T05:13:13.885Z,85.85
2023-05-07T05:15:40.613Z,85.86
2023-05-07T05:18:09.566Z,85.98
2023-05-07T05:20:36.128Z,85.37
2023-05-07T05:23:02.696Z,85.22
2023-05-07T05:25:29.432Z,84.82
2023-05-07T05:27:56.175Z,84.65
2023-05-07T05:30:23.268Z,84.86
2023-05-07T05:32:49.774Z,84.12
2023-05-07T05:35:16.533Z,84.44
2023-05-07T05:37:43.049Z,84.27
2023-05-07T05:40:09.945Z,84.13
2023-05-07T05:42:36.613Z,83.76
2023-05-07T05:45:03.175Z,83.58
2023-05-07T05:47:30.858Z,83.62
2023-05-07T05:49:57.302Z,83.61
2023-05-07T05:52:26.009Z,84.49
2023-05-07T05:54:53.664Z,83.06
2023-05-07T05:57:20.283Z,83.32
2023-05-07T05:59:48.480Z,83.43
2023-05-07T06:02:15.125Z,82.41
2023-05-07T06:04:41.916Z,82.11
2023-05-07T06:07:08.395Z,82.45
2023-05-07T06:09:34.724Z,81.26
2023-05-07T06:12:01.233Z,81.65
2023-05-07T06:14:27.760Z,81.76
2023-05-07T06:16:54.285Z,81.42
2023-05-07T06:19:24.998Z,80.72
2023-05-07T06:21:51.722Z,80.50
2023-05-07T06:24:18.133Z,80.42
2023-05-07T06:26:44.608Z,80.39
2023-05-07T06:29:11.104Z,80.02
2023-05-07T06:31:37.654Z,80.18
2023-05-07T06:34:04.230Z,79.60
2023-05-07T06:36:33.253Z,79.81
2023-05-07T06:39:02.388Z,79.44
2023-05-07T06:41:28.921Z,80.17
2023-05-07T06:43:55.449Z,78.91
2023-05-07T06:46:21.917Z,78.01
2023-05-07T06:48:48.456Z,78.43
2023-05-07T06:51:14.798Z,78.82
2023-05-07T06:53:41.550Z,74.71
2023-05-07T06:56:07.920Z,73.10
2023-05-07T06:58:35.189Z,73.73
2023-05-07T07:01:04.095Z,74.42
2023-05-07T07:03:33.330Z,74.51
2023-05-07T07:06:00.366Z,74.23
2023-05-07T07:08:26.854Z,74.10
2023-05-07T07:10:53.208Z,73.10
2023-05-07T07:13:20.793Z,75.76
2023-05-07T07:15:47.397Z,74.00
2023-05-07T07:18:13.940Z,68.56
2023-05-07T07:20:42.554Z,66.68
2023-05-07T07:23:08.971Z,68.61
2023-05-07T07:25:35.419Z,67.00
2023-05-07T07:28:03.669Z,65.17
2023-05-07T07:30:30.071Z,67.37
2023-05-07T07:33:01.434Z,65.45
2023-05-07T07:35:28.122Z,65.53
2023-05-07T07:37:54.444Z,66.95
2023-05-07T07:40:20.928Z,66.51
2023-05-07T07:42:50.545Z,64.59
2023-05-07T07:45:16.944Z,65.13
2023-05-07T07:47:43.727Z,65.33
2023-05-07T07:50:18.719Z,65.37
2023-05-07T07:52:51.663Z,65.05
2023-05-07T07:55:23.837Z,65.75
2023-05-07T07:57:50.861Z,64.97
2023-05-07T08:00:20.050Z,63.79
2023-05-07T08:02:46.521Z,64.64
2023-05-07T08:05:12.946Z,65.32
2023-05-07T08:07:41.784Z,64.15
2023-05-07T08:10:11.087Z,62.32
2023-05-07T08:12:37.821Z,60.82
2023-05-07T08:15:05.649Z,61.50
2023-05-07T08:17:34.406Z,58.75
2023-05-07T08:20:03.087Z,58.23
2023-05-07T08:22:29.573Z,59.52
2023-05-07T08:24:56.323Z,60.63
2023-05-07T08:27:22.666Z,58.21
2023-05-07T08:29:54.889Z,57.85
2023-05-07T08:32:25.266Z,55.71
2023-05-07T08:34:52.108Z,56.70
2023-05-07T08:37:18.492Z,53.71
2023-05-07T08:39:44.899Z,54.89
2023-05-07T08:42:16.816Z,54.32
2023-05-07T08:44:47.882Z,53.48
2023-05-07T08:47:14.410Z,52.59
2023-05-07T08:49:41.067Z,52.62
2023-05-07T08:52:10.255Z,52.56
2023-05-07T08:54:40.474Z,50.90
2023-05-07T08:57:09.245Z,53.65
2023-05-07T08:59:35.845Z,52.19
2023-05-07T09:02:09.830Z,52.33
2023-05-07T09:04:38.757Z,51.74
2023-05-07T09:07:06.360Z,52.22
2023-05-07T09:09:37.844Z,48.56
2023-05-07T09:12:04.843Z,48.58
2023-05-07T09:14:31.633Z,48.27
2023-05-07T09:16:58.042Z,46.88
2023-05-07T09:19:25.821Z,49.83
2023-05-07T09:22:07.856Z,50.62
2023-05-07T09:24:38.802Z,49.43
2023-05-07T09:27:06.111Z,49.68
2023-05-07T09:29:38.808Z,49.11
2023-05-07T09:32:09.706Z,50.42
2023-05-07T09:34:37.151Z,51.11
2023-05-07T09:37:05.436Z,50.00
2023-05-07T09:39:48.705Z,51.02
2023-05-07T09:42:17.951Z,50.87
2023-05-07T09:44:45.470Z,50.43
2023-05-07T09:47:19.180Z,49.63
2023-05-07T09:49:48.869Z,51.05
2023-05-07T09:52:18.649Z,49.79
2023-05-07T09:54:46.158Z,51.33
2023-05-07T09:57:13.010Z,49.57
2023-05-07T09:59:41.380Z,48.72
2023-05-07T10:02:11.328Z,47.83
2023-05-07T10:04:43.575Z,46.42
2023-05-07T10:07:10.612Z,47.45
2023-05-07T10:09:39.417Z,48.65
2023-05-07T10:12:07.299Z,48.02
2023-05-07T10:14:34.692Z,48.27
2023-05-07T10:17:02.931Z,49.63
2023-05-07T10:19:30.917Z,49.76
2023-05-07T10:22:02.848Z,48.66
2023-05-07T10:24:37.895Z,47.06
2023-05-07T10:27:13.351Z,47.71
2023-05-07T10:29:58.529Z,47.32
2023-05-07T10:32:43.615Z,48.48
2023-05-07T10:35:24.928Z,46.99
2023-05-07T10:37:51.919Z,48.21
2023-05-07T10:40:21.828Z,49.02
2023-05-07T10:43:01.351Z,47.38
2023-05-07T10:45:29.115Z,48.17
2023-05-07T10:50:43.282Z,46.83
2023-05-07T10:53:21.515Z,49.97
2023-05-07T10:55:53.597Z,48.52
2023-05-07T10:58:31.440Z,48.22
2023-05-07T11:00:59.586Z,49.22
2023-05-07T11:03:27.219Z,47.29
2023-05-07T11:06:09.691Z,47.67
2023-05-07T11:08:56.536Z,47.14
2023-05-07T11:11:48.676Z,45.89
2023-05-07T11:14:35.838Z,44.95
2023-05-07T11:17:07.888Z,41.87
2023-05-07T11:19:51.548Z,43.00
2023-05-07T11:22:33.949Z,44.20
2023-05-07T11:25:01.457Z,39.99
2023-05-07T11:27:28.019Z,39.45
2023-05-07T11:29:54.521Z,40.55
2023-05-07T11:32:26.228Z,43.25
2023-05-07T11:34:53.890Z,41.70
2023-05-07T11:37:21.635Z,41.79
2023-05-07T11:40:04.957Z,42.40
2023-05-07T11:42:35.595Z,41.71
2023-05-07T11:45:02.874Z,39.30
2023-05-07T11:47:31.641Z,40.54
2023-05-07T11:50:05.446Z,41.75
2023-05-07T11:52:33.113Z,41.32
2023-05-07T11:55:01.019Z,41.87
2023-05-07T11:57:30.402Z,40.18
2023-05-07T11:59:59.725Z,41.13
2023-05-07T12:02:29.481Z,41.04
2023-05-07T12:04:56.204Z,40.77
2023-05-07T12:07:24.715Z,39.77
2023-05-07T12:09:51.347Z,41.74
2023-05-07T12:12:18.365Z,43.79
2023-05-07T12:14:46.590Z,43.45
2023-05-07T12:17:14.902Z,43.06
2023-05-07T12:19:43.577Z,41.87
2023-05-07T12:22:10.759Z,42.56
2023-05-07T12:24:57.546Z,42.09
2023-05-07T12:27:27.092Z,41.91
2023-05-07T12:29:53.525Z,42.43
2023-05-07T12:32:23.296Z,42.33
2023-05-07T12:34:56.663Z,41.65
2023-05-07T12:37:27.935Z,40.96
2023-05-07T12:40:08.576Z,41.83
2023-05-07T12:42:43.322Z,43.14
2023-05-07T12:45:14.627Z,43.70
2023-05-07T12:47:47.333Z,43.58
2023-05-07T12:50:20.731Z,43.72
2023-05-07T12:52:48.626Z,44.02
2023-05-07T12:55:16.844Z,44.21
2023-05-07T12:57:47.600Z,43.71
2023-05-07T13:00:17.731Z,43.87
2023-05-07T13:02:46.287Z,45.03
2023-05-07T13:05:15.432Z,43.93
2023-05-07T13:07:42.626Z,43.89
2023-05-07T13:10:09.712Z,45.45
2023-05-07T13:12:36.592Z,45.80
2023-05-07T13:15:05.461Z,45.00
2023-05-07T13:17:32.443Z,45.71
2023-05-07T13:19:59.225Z,44.60
2023-05-07T13:22:25.703Z,46.17
2023-05-07T13:24:52.192Z,45.84
2023-05-07T13:27:20.139Z,46.90
2023-05-07T13:29:46.480Z,45.59
2023-05-07T13:32:13.014Z,45.82
2023-05-07T13:34:39.822Z,45.36
2023-05-07T13:37:11.204Z,45.05
2023-05-07T13:39:37.966Z,45.86
2023-05-07T13:42:04.429Z,46.05
2023-05-07T13:44:30.781Z,46.72
2023-05-07T13:46:59.813Z,46.29
2023-05-07T13:49:26.249Z,45.85
2023-05-07T13:51:54.758Z,46.11
2023-05-07T13:54:21.813Z,48.12
2023-05-07T13:56:48.972Z,53.23
2023-05-07T13:59:15.548Z,56.27
2023-05-07T14:01:44.322Z,58.64
2023-05-07T14:04:13.205Z,59.98
2023-05-07T14:06:42.191Z,58.27
2023-05-07T14:09:14.385Z,57.78
2023-05-07T14:11:45.149Z,56.01
2023-05-07T14:14:14.243Z,56.40
2023-05-07T14:16:41.186Z,57.76
2023-05-07T14:19:10.272Z,58.36
2023-05-07T14:21:36.599Z,56.65
2023-05-07T14:24:03.168Z,57.76
2023-05-07T14:26:30.258Z,60.19
2023-05-07T14:28:59.142Z,62.64
2023-05-07T14:31:28.209Z,64.80
2023-05-07T14:33:54.876Z,66.68
2023-05-07T14:36:22.195Z,68.88
2023-05-07T14:38:49.989Z,72.89
2023-05-07T14:41:16.998Z,76.61
2023-05-07T14:43:43.416Z,79.02
2023-05-07T14:46:10.071Z,80.71
2023-05-07T14:48:36.590Z,83.05
2023-05-07T14:51:03.122Z,84.52
2023-05-07T14:53:34.127Z,85.16
2023-05-07T14:56:01.124Z,86.36
2023-05-07T14:58:30.207Z,87.98
2023-05-07T15:00:59.750Z,88.32
2023-05-07T15:03:26.478Z,88.26
2023-05-07T15:05:53.154Z,89.09
2023-05-07T15:08:19.615Z,89.32
2023-05-07T15:10:46.230Z,89.73
2023-05-07T15:13:15.919Z,89.82
2023-05-07T15:15:46.647Z,89.78
2023-05-07T15:18:15.502Z,90.38
2023-05-07T15:20:44.599Z,90.84
2023-05-07T15:23:12.666Z,91.04
2023-05-07T15:25:39.066Z,91.37
2023-05-07T15:28:10.420Z,91.32
2023-05-07T15:30:37.140Z,91.50
2023-05-07T15:33:06.426Z,91.74
2023-05-07T15:35:32.885Z,91.65
2023-05-07T15:37:59.354Z,91.70
2023-05-07T15:40:25.878Z,91.33
2023-05-07T15:42:55.806Z,91.48
2023-05-07T15:45:22.432Z,91.38
2023-05-07T15:47:51.391Z,90.55
2023-05-07T15:50:18.102Z,91.00
2023-05-07T15:52:45.892Z,91.03
2023-05-07T15:55:12.629Z,90.88
2023-05-07T15:57:39.186Z,91.17
2023-05-07T16:00:09.286Z,90.81
2023-05-07T16:02:36.900Z,91.04
2023-05-07T16:05:03.647Z,91.04
2023-05-07T16:07:30.259Z,90.94
2023-05-07T16:09:56.614Z,89.90
2023-05-07T16:12:23.087Z,90.37
2023-05-07T16:14:51.300Z,90.66
2023-05-07T16:17:17.885Z,91.09
2023-05-07T16:19:44.530Z,90.77
2023-05-07T16:22:11.294Z,91.18
2023-05-07T16:24:39.804Z,91.42
2023-05-07T16:27:06.591Z,91.09
2023-05-07T16:29:32.984Z,91.80
2023-05-07T16:31:59.507Z,91.82
2023-05-07T16:34:25.942Z,92.05
2023-05-07T16:36:53.564Z,92.18
2023-05-07T16:39:20.109Z,92.21
2023-05-07T16:41:50.684Z,92.11
2023-05-07T16:44:18.062Z,92.36
2023-05-07T16:46:44.711Z,92.35
2023-05-07T16:49:11.124Z,92.08
2023-05-07T16:51:43.369Z,92.22
2023-05-07T16:54:09.958Z,92.07
2023-05-07T16:56:38.741Z,92.03
2023-05-07T16:59:05.122Z,92.12
2023-05-07T17:01:32.670Z,92.07
2023-05-07T17:04:01.595Z,92.49
2023-05-07T17:06:28.273Z,92.56
2023-05-07T17:08:54.624Z,92.38
2023-05-07T17:11:23.466Z,92.43
2023-05-07T17:13:51.669Z,92.54
2023-05-07T17:16:20.261Z,92.65
2023-05-07T17:18:46.646Z,92.47
2023-05-07T17:21:13.009Z,92.49
2023-05-07T17:23:39.609Z,92.51
2023-05-07T17:26:11.747Z,92.65
2023-05-07T17:28:41.240Z,92.41
2023-05-07T17:31:07.691Z,92.59
2023-05-07T17:33:34.262Z,92.26
2023-05-07T17:36:03.161Z,92.20
2023-05-07T17:38:30.642Z,92.18
2023-05-07T17:40:58.709Z,92.33
2023-05-07T17:43:25.271Z,92.51
2023-05-07T17:45:51.816Z,92.48
2023-05-07T17:48:18.312Z,92.55
2023-05-07T17:50:44.936Z,92.37
2023-05-07T17:53:12.599Z,92.83
2023-05-07T17:55:43.680Z,92.64
2023-05-07T17:58:11.102Z,92.91
2023-05-07T18:00:37.776Z,92.99
2023-05-07T18:03:05.016Z,92.90
2023-05-07T18:05:31.952Z,93.36
2023-05-07T18:07:58.319Z,93.37
2023-05-07T18:10:24.771Z,93.04
2023-05-07T18:12:51.543Z,92.99
2023-05-07T18:15:17.994Z,92.92
2023-05-07T18:17:44.445Z,93.23
2023-05-07T18:20:12.309Z,93.30
2023-05-07T18:22:38.970Z,93.33
2023-05-07T18:25:06.002Z,93.37
2023-05-07T18:27:35.076Z,93.11
2023-05-07T18:30:01.951Z,93.15
2023-05-07T18:32:28.480Z,93.22
2023-05-07T18:34:55.134Z,93.34
2023-05-07T18:37:21.880Z,93.63
2023-05-07T18:39:49.430Z,93.70
2023-05-07T18:42:15.844Z,93.85
2023-05-07T18:44:42.418Z,93.87
2023-05-07T18:47:08.785Z,93.98
2023-05-07T18:49:36.045Z,94.13
2023-05-07T18:52:02.620Z,94.30
2023-05-07T18:54:28.996Z,94.48
2023-05-07T18:56:55.407Z,94.52
2023-05-07T18:59:22.232Z,94.72
2023-05-07T19:01:50.938Z,94.73
2023-05-07T19:04:20.509Z,94.70
2023-05-07T19:06:50.370Z,94.79
2023-05-07T19:09:16.716Z,94.97
2023-05-07T19:11:45.751Z,94.77
2023-05-07T19:14:12.113Z,94.82
2023-05-07T19:16:38.655Z,94.85
2023-05-07T19:19:05.906Z,94.96
2023-05-07T19:21:34.522Z,95.15
2023-05-07T19:24:00.879Z,95.11
2023-05-07T19:26:27.408Z,95.10
2023-05-07T19:29:06.585Z,95.20
2023-05-07T19:31:39.010Z,95.34
2023-05-07T19:34:05.391Z,95.41
2023-05-07T19:36:34.356Z,95.33
2023-05-07T19:39:01.184Z,95.27
2023-05-07T19:41:28.582Z,95.37
2023-05-07T19:43:55.349Z,95.14
2023-05-07T19:46:22.136Z,95.49
2023-05-07T19:48:48.626Z,95.44
2023-05-07T19:51:15.095Z,95.49
2023-05-07T19:53:41.577Z,95.04
2023-05-07T19:56:11.356Z,95.47
2023-05-07T19:58:38.607Z,95.52
2023-05-07T20:01:08.245Z,95.51
2023-05-07T20:03:35.399Z,95.58
2023-05-07T20:06:02.704Z,95.91
2023-05-07T20:08:29.552Z,95.61
2023-05-07T20:10:58.059Z,95.54
2023-05-07T20:13:26.990Z,95.67
2023-05-07T20:15:58.214Z,95.75
2023-05-07T20:18:25.416Z,95.70
2023-05-07T20:20:51.909Z,95.78
2023-05-07T20:23:18.464Z,95.54
2023-05-07T20:25:50.233Z,95.62
2023-05-07T20:28:16.745Z,95.58
2023-05-07T20:30:49.338Z,95.80
2023-05-07T20:33:18.382Z,95.68
2023-05-07T20:35:45.188Z,95.68
2023-05-07T20:38:14.364Z,95.72
2023-05-07T20:40:40.840Z,95.63
2023-05-07T20:43:07.246Z,95.71
2023-05-07T20:45:35.962Z,95.70
2023-05-07T20:48:02.606Z,95.74
2023-05-07T20:50:32.192Z,96.05
2023-05-07T20:53:00.967Z,95.80
2023-05-07T20:55:29.977Z,95.62
2023-05-07T20:57:58.857Z,95.75
2023-05-07T21:00:27.702Z,95.57
2023-05-07T21:02:54.370Z,95.73
2023-05-07T21:05:23.306Z,95.48
2023-05-07T21:07:49.687Z,95.55
2023-05-07T21:10:16.181Z,95.33
2023-05-07T21:12:42.704Z,95.59
2023-05-07T21:15:12.543Z,95.38
2023-05-07T21:17:41.402Z,95.33
2023-05-07T21:20:11.860Z,95.33
2023-05-07T21:22:41.852Z,95.19
2023-05-07T21:25:09.500Z,95.23
2023-05-07T21:27:36.829Z,95.36
2023-05-07T21:30:05.715Z,95.04
2023-05-07T21:32:32.380Z,95.37
2023-05-07T21:35:00.640Z,95.38
2023-05-07T21:37:27.154Z,95.35
2023-05-07T21:39:53.617Z,95.40
2023-05-07T21:42:22.423Z,95.46
2023-05-07T21:44:49.548Z,95.47
2023-05-07T21:47:19.245Z,95.22
2023-05-07T21:49:46.291Z,95.13
2023-05-07T21:52:19.637Z,95.29
2023-05-07T21:54:51.596Z,94.94
2023-05-07T21:57:17.964Z,95.16
2023-05-07T21:59:44.352Z,94.94
2023-05-07T22:02:10.717Z,95.06
2023-05-07T22:04:37.280Z,94.93
2023-05-07T22:07:06.423Z,94.78
2023-05-07T22:09:32.816Z,94.92
2023-05-07T22:12:00.144Z,94.98
2023-05-07T22:14:27.368Z,94.95
2023-05-07T22:16:56.273Z,94.88
2023-05-07T22:19:22.658Z,95.00
2023-05-07T22:21:49.311Z,95.15
2023-05-07T22:24:16.311Z,95.28
2023-05-07T22:26:42.757Z,95.41
2023-05-07T22:29:09.269Z,95.29
2023-05-07T22:31:35.720Z,95.20
2023-05-07T22:34:02.221Z,95.17
2023-05-07T22:36:28.597Z,95.33
2023-05-07T22:38:55.043Z,95.46
2023-05-07T22:41:21.597Z,95.31
2023-05-07T22:43:48.279Z,95.31
2023-05-07T22:46:14.901Z,95.26
2023-05-07T22:48:43.734Z,94.89
2023-05-07T22:51:14.508Z,94.85
2023-05-07T22:53:41.105Z,94.86
2023-05-07T22:56:12.686Z,94.81
2023-05-07T22:58:39.236Z,94.94
2023-05-07T23:01:13.366Z,95.14
2023-05-07T23:03:42.244Z,94.85
2023-05-07T23:06:08.794Z,95.19
2023-05-07T23:08:35.457Z,95.08
2023-05-07T23:11:01.971Z,94.98
2023-05-07T23:13:28.429Z,94.94
2023-05-07T23:15:54.884Z,94.85
2023-05-07T23:18:21.361Z,94.80
2023-05-07T23:20:47.706Z,94.94
2023-05-07T23:23:14.311Z,94.93
2023-05-07T23:25:42.958Z,95.10
2023-05-07T23:28:09.300Z,94.92
2023-05-07T23:30:40.001Z,95.12
2023-05-07T23:33:14.104Z,94.96
2023-05-07T23:35:40.615Z,95.07
2023-05-07T23:38:07.181Z,95.12
2023-05-07T23:40:33.664Z,94.90
2023-05-07T23:43:00.170Z,95.11
2023-05-07T23:45:33.960Z,95.19
2023-05-07T23:48:03.861Z,95.26
2023-05-07T23:50:30.207Z,95.23
2023-05-07T23:52:56.624Z,95.11
2023-05-07T23:55:25.219Z,95.06
2023-05-07T23:57:51.778Z,95.42
